sensor_id;sensor_type;location;lat;lon;timestamp;P1;durP1;ratioP1;P2;durP2;ratioP2
438;SDS011;206;48.782;9.252;2023-07-24T00:01:15;7.90;;;6.93;;
438;SDS011;206;48.782;9.252;2023-07-24T00:03:42;11.70;;;8.20;;
438;SDS011;206;48.782;9.252;2023-07-24T00:06:07;8.03;;;6.70;;
438;SDS011;206;48.782;9.252;2023-07-24T00:08:33;9.13;;;7.60;;
438;SDS011;206;48.782;9.252;2023-07-24T00:10:58;10.50;;;8.70;;
438;SDS011;206;48.782;9.252;2023-07-24T00:13:24;10.20;;;6.90;;
438;SDS011;206;48.782;9.252;2023-07-24T00:15:50;9.03;;;7.87;;
438;SDS011;206;48.782;9.252;2023-07-24T00:18:15;10.37;;;7.33;;
438;SDS011;206;48.782;9.252;2023-07-24T00:20:41;10.63;;;7.70;;
438;SDS011;206;48.782;9.252;2023-07-24T00:23:07;9.40;;;7.97;;
438;SDS011;206;48.782;9.252;2023-07-24T00:25:32;9.30;;;7.57;;
438;SDS011;206;48.782;9.252;2023-07-24T00:27:58;16.73;;;8.03;;
438;SDS011;206;48.782;9.252;2023-07-24T00:30:23;19.50;;;9.80;;
438;SDS011;206;48.782;9.252;2023-07-24T00:32:49;16.90;;;8.90;;
438;SDS011;206;48.782;9.252;2023-07-24T00:35:15;12.63;;;9.07;;
438;SDS011;206;48.782;9.252;2023-07-24T00:37:40;14.10;;;9.07;;
438;SDS011;206;48.782;9.252;2023-07-24T00:40:06;16.53;;;8.70;;
438;SDS011;206;48.782;9.252;2023-07-24T00:42:32;11.87;;;8.93;;
438;SDS011;206;48.782;9.252;2023-07-24T00:44:58;14.03;;;8.20;;
438;SDS011;206;48.782;9.252;2023-07-24T00:47:24;8.10;;;6.93;;
438;SDS011;206;48.782;9.252;2023-07-24T00:49:51;13.60;;;7.80;;
438;SDS011;206;48.782;9.252;2023-07-24T00:52:17;11.77;;;7.80;;
438;SDS011;206;48.782;9.252;2023-07-24T00:54:42;10.90;;;7.97;;
438;SDS011;206;48.782;9.252;2023-07-24T00:57:10;11.17;;;8.93;;
438;SDS011;206;48.782;9.252;2023-07-24T00:59:36;12.33;;;9.43;;
438;SDS011;206;48.782;9.252;2023-07-24T01:02:01;14.60;;;8.73;;
438;SDS011;206;48.782;9.252;2023-07-24T01:04:27;10.50;;;8.43;;
438;SDS011;206;48.782;9.252;2023-07-24T01:06:53;10.90;;;8.70;;
438;SDS011;206;48.782;9.252;2023-07-24T01:09:19;10.03;;;8.70;;
438;SDS011;206;48.782;9.252;2023-07-24T01:15:12;8.83;;;7.40;;
438;SDS011;206;48.782;9.252;2023-07-24T01:17:56;11.37;;;8.37;;
438;SDS011;206;48.782;9.252;2023-07-24T01:20:24;10.00;;;8.17;;
438;SDS011;206;48.782;9.252;2023-07-24T01:25:31;11.50;;;8.60;;
438;SDS011;206;48.782;9.252;2023-07-24T01:28:00;13.27;;;9.23;;
438;SDS011;206;48.782;9.252;2023-07-24T01:30:26;12.50;;;8.43;;
438;SDS011;206;48.782;9.252;2023-07-24T01:32:51;10.33;;;8.60;;
438;SDS011;206;48.782;9.252;2023-07-24T01:35:17;9.03;;;8.10;;
438;SDS011;206;48.782;9.252;2023-07-24T01:37:43;11.47;;;9.03;;
438;SDS011;206;48.782;9.252;2023-07-24T01:40:11;11.23;;;8.73;;
438;SDS011;206;48.782;9.252;2023-07-24T01:42:37;10.87;;;8.20;;
438;SDS011;206;48.782;9.252;2023-07-24T01:45:03;10.57;;;7.83;;
438;SDS011;206;48.782;9.252;2023-07-24T01:47:29;9.90;;;7.97;;
438;SDS011;206;48.782;9.252;2023-07-24T01:49:55;10.80;;;7.93;;
438;SDS011;206;48.782;9.252;2023-07-24T01:52:21;10.77;;;8.20;;
438;SDS011;206;48.782;9.252;2023-07-24T01:54:47;8.70;;;7.73;;
438;SDS011;206;48.782;9.252;2023-07-24T01:57:13;11.90;;;8.00;;
438;SDS011;206;48.782;9.252;2023-07-24T01:59:38;12.33;;;8.50;;
438;SDS011;206;48.782;9.252;2023-07-24T02:02:04;11.73;;;8.00;;
438;SDS011;206;48.782;9.252;2023-07-24T02:04:30;10.23;;;8.00;;
438;SDS011;206;48.782;9.252;2023-07-24T02:06:55;8.67;;;7.33;;
438;SDS011;206;48.782;9.252;2023-07-24T02:09:21;9.13;;;7.80;;
438;SDS011;206;48.782;9.252;2023-07-24T02:11:47;13.80;;;7.77;;
438;SDS011;206;48.782;9.252;2023-07-24T02:14:13;8.03;;;6.57;;
438;SDS011;206;48.782;9.252;2023-07-24T02:16:39;10.80;;;8.23;;
438;SDS011;206;48.782;9.252;2023-07-24T02:19:05;8.47;;;7.23;;
438;SDS011;206;48.782;9.252;2023-07-24T02:21:31;9.00;;;7.53;;
438;SDS011;206;48.782;9.252;2023-07-24T02:23:57;11.10;;;8.23;;
438;SDS011;206;48.782;9.252;2023-07-24T02:26:23;7.97;;;6.93;;
438;SDS011;206;48.782;9.252;2023-07-24T02:28:48;9.37;;;7.90;;
438;SDS011;206;48.782;9.252;2023-07-24T02:31:14;8.13;;;6.90;;
438;SDS011;206;48.782;9.252;2023-07-24T02:33:40;10.10;;;7.00;;
438;SDS011;206;48.782;9.252;2023-07-24T02:36:05;11.20;;;9.50;;
438;SDS011;206;48.782;9.252;2023-07-24T02:38:31;9.10;;;7.27;;
438;SDS011;206;48.782;9.252;2023-07-24T02:40:56;10.90;;;7.60;;
438;SDS011;206;48.782;9.252;2023-07-24T02:43:22;12.03;;;7.47;;
438;SDS011;206;48.782;9.252;2023-07-24T02:45:48;8.70;;;7.23;;
438;SDS011;206;48.782;9.252;2023-07-24T02:48:13;13.00;;;8.87;;
438;SDS011;206;48.782;9.252;2023-07-24T02:50:39;8.73;;;7.40;;
438;SDS011;206;48.782;9.252;2023-07-24T02:53:05;12.07;;;8.30;;
438;SDS011;206;48.782;9.252;2023-07-24T02:55:30;12.57;;;8.40;;
438;SDS011;206;48.782;9.252;2023-07-24T02:57:56;11.37;;;7.90;;
438;SDS011;206;48.782;9.252;2023-07-24T03:00:21;7.60;;;6.80;;
438;SDS011;206;48.782;9.252;2023-07-24T03:02:47;9.23;;;7.30;;
438;SDS011;206;48.782;9.252;2023-07-24T03:05:13;10.40;;;8.13;;
438;SDS011;206;48.782;9.252;2023-07-24T03:07:38;10.47;;;8.13;;
438;SDS011;206;48.782;9.252;2023-07-24T03:10:04;11.93;;;7.13;;
438;SDS011;206;48.782;9.252;2023-07-24T03:12:30;10.70;;;7.57;;
438;SDS011;206;48.782;9.252;2023-07-24T03:14:55;11.77;;;7.83;;
438;SDS011;206;48.782;9.252;2023-07-24T03:17:22;10.83;;;7.80;;
438;SDS011;206;48.782;9.252;2023-07-24T03:19:48;11.60;;;8.43;;
438;SDS011;206;48.782;9.252;2023-07-24T03:22:14;10.40;;;7.83;;
438;SDS011;206;48.782;9.252;2023-07-24T03:24:39;20.10;;;8.90;;
438;SDS011;206;48.782;9.252;2023-07-24T03:27:05;10.73;;;8.40;;
438;SDS011;206;48.782;9.252;2023-07-24T03:29:30;9.07;;;8.10;;
438;SDS011;206;48.782;9.252;2023-07-24T03:31:56;9.70;;;7.03;;
438;SDS011;206;48.782;9.252;2023-07-24T03:34:22;11.77;;;7.37;;
438;SDS011;206;48.782;9.252;2023-07-24T03:36:47;12.23;;;7.20;;
438;SDS011;206;48.782;9.252;2023-07-24T03:39:13;9.87;;;8.03;;
438;SDS011;206;48.782;9.252;2023-07-24T03:41:39;10.00;;;7.43;;
438;SDS011;206;48.782;9.252;2023-07-24T03:44:08;9.67;;;8.20;;
438;SDS011;206;48.782;9.252;2023-07-24T03:46:33;9.27;;;7.50;;
438;SDS011;206;48.782;9.252;2023-07-24T03:48:59;10.63;;;8.33;;
438;SDS011;206;48.782;9.252;2023-07-24T03:51:25;9.47;;;6.90;;
438;SDS011;206;48.782;9.252;2023-07-24T03:53:50;11.33;;;8.73;;
438;SDS011;206;48.782;9.252;2023-07-24T03:56:16;10.27;;;7.60;;
438;SDS011;206;48.782;9.252;2023-07-24T03:58:42;9.33;;;7.50;;
438;SDS011;206;48.782;9.252;2023-07-24T04:01:08;9.77;;;8.17;;
438;SDS011;206;48.782;9.252;2023-07-24T04:03:34;8.10;;;6.10;;
438;SDS011;206;48.782;9.252;2023-07-24T04:06:00;9.30;;;8.10;;
438;SDS011;206;48.782;9.252;2023-07-24T04:08:25;10.20;;;8.03;;
438;SDS011;206;48.782;9.252;2023-07-24T04:10:51;10.57;;;8.40;;
438;SDS011;206;48.782;9.252;2023-07-24T04:13:17;10.53;;;8.17;;
438;SDS011;206;48.782;9.252;2023-07-24T04:15:43;12.30;;;8.63;;
438;SDS011;206;48.782;9.252;2023-07-24T04:18:09;9.03;;;7.03;;
438;SDS011;206;48.782;9.252;2023-07-24T04:20:35;9.30;;;8.10;;
438;SDS011;206;48.782;9.252;2023-07-24T04:23:01;11.23;;;9.13;;
438;SDS011;206;48.782;9.252;2023-07-24T04:25:27;8.47;;;6.80;;
438;SDS011;206;48.782;9.252;2023-07-24T04:27:52;9.63;;;8.67;;
438;SDS011;206;48.782;9.252;2023-07-24T04:30:18;12.33;;;8.03;;
438;SDS011;206;48.782;9.252;2023-07-24T04:32:43;9.17;;;7.70;;
438;SDS011;206;48.782;9.252;2023-07-24T04:35:09;10.80;;;8.53;;
438;SDS011;206;48.782;9.252;2023-07-24T04:37:35;8.53;;;6.53;;
438;SDS011;206;48.782;9.252;2023-07-24T04:40:00;9.40;;;7.77;;
438;SDS011;206;48.782;9.252;2023-07-24T04:42:26;9.50;;;7.83;;
438;SDS011;206;48.782;9.252;2023-07-24T04:44:52;11.20;;;7.63;;
438;SDS011;206;48.782;9.252;2023-07-24T04:47:17;11.30;;;8.30;;
438;SDS011;206;48.782;9.252;2023-07-24T04:49:43;12.00;;;9.07;;
438;SDS011;206;48.782;9.252;2023-07-24T04:52:08;9.80;;;7.97;;
438;SDS011;206;48.782;9.252;2023-07-24T04:54:34;11.20;;;9.10;;
438;SDS011;206;48.782;9.252;2023-07-24T04:56:59;11.57;;;8.60;;
438;SDS011;206;48.782;9.252;2023-07-24T04:59:25;12.37;;;9.53;;
438;SDS011;206;48.782;9.252;2023-07-24T05:01:51;12.33;;;8.47;;
438;SDS011;206;48.782;9.252;2023-07-24T05:04:17;10.57;;;8.30;;
438;SDS011;206;48.782;9.252;2023-07-24T05:06:42;10.97;;;8.37;;
438;SDS011;206;48.782;9.252;2023-07-24T05:09:08;10.10;;;9.33;;
438;SDS011;206;48.782;9.252;2023-07-24T05:11:33;10.23;;;8.73;;
438;SDS011;206;48.782;9.252;2023-07-24T05:13:59;10.67;;;8.07;;
438;SDS011;206;48.782;9.252;2023-07-24T05:16:25;11.80;;;8.57;;
438;SDS011;206;48.782;9.252;2023-07-24T05:18:50;11.57;;;7.93;;
438;SDS011;206;48.782;9.252;2023-07-24T05:21:16;10.40;;;8.37;;
438;SDS011;206;48.782;9.252;2023-07-24T05:23:41;10.97;;;8.23;;
438;SDS011;206;48.782;9.252;2023-07-24T05:26:07;11.80;;;8.77;;
438;SDS011;206;48.782;9.252;2023-07-24T05:28:33;11.53;;;8.13;;
438;SDS011;206;48.782;9.252;2023-07-24T05:31:01;11.23;;;8.80;;
438;SDS011;206;48.782;9.252;2023-07-24T05:33:28;11.87;;;8.53;;
438;SDS011;206;48.782;9.252;2023-07-24T05:35:58;9.13;;;7.97;;
438;SDS011;206;48.782;9.252;2023-07-24T05:38:27;11.60;;;9.00;;
438;SDS011;206;48.782;9.252;2023-07-24T05:40:54;12.73;;;9.10;;
438;SDS011;206;48.782;9.252;2023-07-24T05:43:23;9.23;;;7.90;;
438;SDS011;206;48.782;9.252;2023-07-24T05:45:49;12.17;;;8.20;;
438;SDS011;206;48.782;9.252;2023-07-24T05:48:16;10.73;;;9.57;;
438;SDS011;206;48.782;9.252;2023-07-24T05:50:41;11.07;;;8.50;;
438;SDS011;206;48.782;9.252;2023-07-24T05:53:07;10.23;;;8.03;;
438;SDS011;206;48.782;9.252;2023-07-24T05:55:32;11.17;;;7.57;;
438;SDS011;206;48.782;9.252;2023-07-24T05:57:58;12.90;;;8.43;;
438;SDS011;206;48.782;9.252;2023-07-24T06:00:23;10.87;;;8.47;;
438;SDS011;206;48.782;9.252;2023-07-24T06:02:49;13.37;;;8.77;;
438;SDS011;206;48.782;9.252;2023-07-24T06:05:14;10.73;;;7.70;;
438;SDS011;206;48.782;9.252;2023-07-24T06:07:40;12.27;;;8.07;;
438;SDS011;206;48.782;9.252;2023-07-24T06:10:06;9.97;;;9.00;;
438;SDS011;206;48.782;9.252;2023-07-24T06:12:32;11.17;;;7.80;;
438;SDS011;206;48.782;9.252;2023-07-24T06:14:57;10.80;;;9.20;;
438;SDS011;206;48.782;9.252;2023-07-24T06:17:23;12.40;;;8.53;;
438;SDS011;206;48.782;9.252;2023-07-24T06:19:49;14.83;;;9.80;;
438;SDS011;206;48.782;9.252;2023-07-24T06:22:14;12.70;;;8.33;;
438;SDS011;206;48.782;9.252;2023-07-24T06:24:40;11.37;;;8.73;;
438;SDS011;206;48.782;9.252;2023-07-24T06:27:05;10.47;;;8.10;;
438;SDS011;206;48.782;9.252;2023-07-24T06:29:31;9.60;;;8.10;;
438;SDS011;206;48.782;9.252;2023-07-24T06:31:57;9.93;;;8.73;;
438;SDS011;206;48.782;9.252;2023-07-24T06:34:23;10.83;;;8.00;;
438;SDS011;206;48.782;9.252;2023-07-24T06:36:48;13.40;;;7.97;;
438;SDS011;206;48.782;9.252;2023-07-24T06:39:14;10.47;;;8.40;;
438;SDS011;206;48.782;9.252;2023-07-24T06:41:40;10.77;;;8.03;;
438;SDS011;206;48.782;9.252;2023-07-24T06:44:06;9.50;;;8.10;;
438;SDS011;206;48.782;9.252;2023-07-24T06:46:31;12.70;;;8.20;;
438;SDS011;206;48.782;9.252;2023-07-24T06:48:57;17.03;;;9.10;;
438;SDS011;206;48.782;9.252;2023-07-24T06:51:23;9.73;;;8.00;;
438;SDS011;206;48.782;9.252;2023-07-24T06:53:48;11.67;;;7.90;;
438;SDS011;206;48.782;9.252;2023-07-24T06:56:14;16.00;;;9.30;;
438;SDS011;206;48.782;9.252;2023-07-24T06:58:39;10.93;;;8.50;;
438;SDS011;206;48.782;9.252;2023-07-24T07:01:05;19.03;;;9.20;;
438;SDS011;206;48.782;9.252;2023-07-24T07:03:32;12.87;;;9.43;;
438;SDS011;206;48.782;9.252;2023-07-24T07:05:59;12.00;;;8.70;;
438;SDS011;206;48.782;9.252;2023-07-24T07:08:26;11.97;;;8.87;;
438;SDS011;206;48.782;9.252;2023-07-24T07:10:55;17.93;;;9.30;;
438;SDS011;206;48.782;9.252;2023-07-24T07:13:22;11.60;;;7.47;;
438;SDS011;206;48.782;9.252;2023-07-24T07:15:47;15.10;;;8.97;;
438;SDS011;206;48.782;9.252;2023-07-24T07:18:13;11.60;;;8.97;;
438;SDS011;206;48.782;9.252;2023-07-24T07:20:39;10.50;;;8.43;;
438;SDS011;206;48.782;9.252;2023-07-24T07:23:10;13.13;;;9.50;;
438;SDS011;206;48.782;9.252;2023-07-24T07:25:36;11.73;;;7.80;;
438;SDS011;206;48.782;9.252;2023-07-24T07:28:01;8.87;;;8.00;;
438;SDS011;206;48.782;9.252;2023-07-24T07:30:27;17.70;;;10.20;;
438;SDS011;206;48.782;9.252;2023-07-24T07:32:52;16.53;;;9.90;;
438;SDS011;206;48.782;9.252;2023-07-24T07:35:18;12.97;;;8.83;;
438;SDS011;206;48.782;9.252;2023-07-24T07:37:43;12.97;;;8.70;;
438;SDS011;206;48.782;9.252;2023-07-24T07:40:09;15.00;;;11.10;;
438;SDS011;206;48.782;9.252;2023-07-24T07:42:35;13.17;;;9.27;;
438;SDS011;206;48.782;9.252;2023-07-24T07:45:00;14.60;;;10.83;;
438;SDS011;206;48.782;9.252;2023-07-24T07:47:26;13.23;;;9.80;;
438;SDS011;206;48.782;9.252;2023-07-24T07:49:52;13.93;;;10.50;;
438;SDS011;206;48.782;9.252;2023-07-24T07:52:17;16.63;;;9.60;;
438;SDS011;206;48.782;9.252;2023-07-24T07:54:46;20.30;;;11.73;;
438;SDS011;206;48.782;9.252;2023-07-24T07:57:12;12.43;;;9.40;;
438;SDS011;206;48.782;9.252;2023-07-24T07:59:38;15.97;;;10.70;;
438;SDS011;206;48.782;9.252;2023-07-24T08:02:04;9.20;;;8.40;;
438;SDS011;206;48.782;9.252;2023-07-24T08:04:29;16.60;;;9.80;;
438;SDS011;206;48.782;9.252;2023-07-24T08:06:55;16.07;;;9.57;;
438;SDS011;206;48.782;9.252;2023-07-24T08:09:20;14.10;;;10.00;;
438;SDS011;206;48.782;9.252;2023-07-24T08:11:49;16.70;;;10.47;;
438;SDS011;206;48.782;9.252;2023-07-24T08:14:14;14.63;;;9.83;;
438;SDS011;206;48.782;9.252;2023-07-24T08:16:40;15.70;;;10.90;;
438;SDS011;206;48.782;9.252;2023-07-24T08:19:05;14.20;;;9.50;;
438;SDS011;206;48.782;9.252;2023-07-24T08:21:31;12.60;;;10.30;;
438;SDS011;206;48.782;9.252;2023-07-24T08:23:57;11.77;;;9.50;;
438;SDS011;206;48.782;9.252;2023-07-24T08:26:23;11.93;;;9.33;;
438;SDS011;206;48.782;9.252;2023-07-24T08:28:51;14.47;;;10.63;;
438;SDS011;206;48.782;9.252;2023-07-24T08:31:17;17.50;;;9.80;;
438;SDS011;206;48.782;9.252;2023-07-24T08:33:43;17.80;;;8.77;;
438;SDS011;206;48.782;9.252;2023-07-24T08:36:08;15.90;;;10.77;;
438;SDS011;206;48.782;9.252;2023-07-24T08:38:37;11.90;;;8.50;;
438;SDS011;206;48.782;9.252;2023-07-24T08:41:10;11.87;;;9.10;;
438;SDS011;206;48.782;9.252;2023-07-24T08:43:38;10.03;;;8.00;;
438;SDS011;206;48.782;9.252;2023-07-24T08:46:06;13.37;;;9.60;;
438;SDS011;206;48.782;9.252;2023-07-24T08:48:33;11.10;;;8.40;;
438;SDS011;206;48.782;9.252;2023-07-24T08:51:03;10.20;;;8.03;;
438;SDS011;206;48.782;9.252;2023-07-24T08:53:30;11.30;;;8.60;;
438;SDS011;206;48.782;9.252;2023-07-24T08:55:57;15.60;;;8.30;;
438;SDS011;206;48.782;9.252;2023-07-24T08:58:24;13.97;;;8.80;;
438;SDS011;206;48.782;9.252;2023-07-24T09:00:50;14.40;;;9.50;;
438;SDS011;206;48.782;9.252;2023-07-24T09:03:17;8.63;;;8.13;;
438;SDS011;206;48.782;9.252;2023-07-24T09:05:45;9.97;;;8.30;;
438;SDS011;206;48.782;9.252;2023-07-24T09:08:11;9.03;;;7.33;;
438;SDS011;206;48.782;9.252;2023-07-24T09:10:37;9.80;;;8.23;;
438;SDS011;206;48.782;9.252;2023-07-24T09:13:02;15.93;;;9.37;;
438;SDS011;206;48.782;9.252;2023-07-24T09:15:29;14.20;;;9.07;;
438;SDS011;206;48.782;9.252;2023-07-24T09:18:08;11.03;;;8.77;;
438;SDS011;206;48.782;9.252;2023-07-24T09:20:40;12.83;;;8.10;;
438;SDS011;206;48.782;9.252;2023-07-24T09:23:07;12.47;;;9.20;;
438;SDS011;206;48.782;9.252;2023-07-24T09:25:34;9.80;;;7.97;;
438;SDS011;206;48.782;9.252;2023-07-24T09:28:01;10.13;;;8.17;;
438;SDS011;206;48.782;9.252;2023-07-24T09:30:41;9.00;;;8.10;;
438;SDS011;206;48.782;9.252;2023-07-24T09:33:16;12.40;;;7.90;;
438;SDS011;206;48.782;9.252;2023-07-24T09:35:42;12.13;;;7.93;;
438;SDS011;206;48.782;9.252;2023-07-24T09:38:08;8.20;;;7.80;;
438;SDS011;206;48.782;9.252;2023-07-24T09:46:06;7.90;;;6.37;;
438;SDS011;206;48.782;9.252;2023-07-24T09:48:33;8.00;;;5.90;;
438;SDS011;206;48.782;9.252;2023-07-24T09:51:00;7.83;;;6.63;;
438;SDS011;206;48.782;9.252;2023-07-24T09:53:33;7.67;;;5.90;;
438;SDS011;206;48.782;9.252;2023-07-24T09:56:11;17.97;;;6.93;;
438;SDS011;206;48.782;9.252;2023-07-24T09:58:39;9.10;;;6.40;;
438;SDS011;206;48.782;9.252;2023-07-24T10:01:08;10.70;;;8.20;;
438;SDS011;206;48.782;9.252;2023-07-24T10:03:35;9.43;;;7.10;;
438;SDS011;206;48.782;9.252;2023-07-24T10:06:05;9.77;;;7.07;;
438;SDS011;206;48.782;9.252;2023-07-24T10:08:35;10.80;;;8.20;;
438;SDS011;206;48.782;9.252;2023-07-24T10:11:01;12.70;;;8.50;;
438;SDS011;206;48.782;9.252;2023-07-24T10:13:27;7.73;;;6.90;;
438;SDS011;206;48.782;9.252;2023-07-24T10:15:54;7.33;;;6.23;;
438;SDS011;206;48.782;9.252;2023-07-24T10:18:25;13.00;;;7.20;;
438;SDS011;206;48.782;9.252;2023-07-24T10:23:29;10.30;;;7.13;;
438;SDS011;206;48.782;9.252;2023-07-24T10:25:54;13.30;;;7.67;;
438;SDS011;206;48.782;9.252;2023-07-24T10:28:29;11.80;;;7.60;;
438;SDS011;206;48.782;9.252;2023-07-24T10:30:57;12.87;;;7.70;;
438;SDS011;206;48.782;9.252;2023-07-24T10:33:22;11.17;;;8.60;;
438;SDS011;206;48.782;9.252;2023-07-24T10:35:53;10.30;;;7.40;;
438;SDS011;206;48.782;9.252;2023-07-24T10:38:19;6.27;;;5.80;;
438;SDS011;206;48.782;9.252;2023-07-24T10:40:46;8.77;;;6.23;;
438;SDS011;206;48.782;9.252;2023-07-24T10:43:19;9.03;;;7.70;;
438;SDS011;206;48.782;9.252;2023-07-24T10:45:50;12.23;;;8.70;;
438;SDS011;206;48.782;9.252;2023-07-24T10:48:18;14.87;;;7.27;;
438;SDS011;206;48.782;9.252;2023-07-24T10:50:49;10.43;;;7.53;;
438;SDS011;206;48.782;9.252;2023-07-24T10:53:17;8.77;;;7.10;;
438;SDS011;206;48.782;9.252;2023-07-24T10:55:44;12.73;;;8.73;;
438;SDS011;206;48.782;9.252;2023-07-24T10:58:12;10.00;;;7.77;;
438;SDS011;206;48.782;9.252;2023-07-24T11:00:42;10.50;;;7.70;;
438;SDS011;206;48.782;9.252;2023-07-24T11:03:12;14.40;;;8.00;;
438;SDS011;206;48.782;9.252;2023-07-24T11:05:39;8.40;;;6.80;;
438;SDS011;206;48.782;9.252;2023-07-24T11:08:12;10.20;;;8.00;;
438;SDS011;206;48.782;9.252;2023-07-24T11:10:47;10.80;;;7.70;;
438;SDS011;206;48.782;9.252;2023-07-24T11:13:14;13.30;;;8.13;;
438;SDS011;206;48.782;9.252;2023-07-24T11:15:41;14.90;;;8.40;;
438;SDS011;206;48.782;9.252;2023-07-24T11:18:07;11.27;;;7.40;;
438;SDS011;206;48.782;9.252;2023-07-24T11:20:36;9.93;;;7.13;;
438;SDS011;206;48.782;9.252;2023-07-24T11:23:28;10.87;;;7.70;;
438;SDS011;206;48.782;9.252;2023-07-24T11:25:54;9.50;;;7.40;;
438;SDS011;206;48.782;9.252;2023-07-24T11:28:20;7.20;;;6.80;;
438;SDS011;206;48.782;9.252;2023-07-24T11:30:45;11.80;;;6.50;;
438;SDS011;206;48.782;9.252;2023-07-24T11:33:12;7.90;;;6.60;;
438;SDS011;206;48.782;9.252;2023-07-24T11:35:40;11.47;;;7.90;;
438;SDS011;206;48.782;9.252;2023-07-24T11:38:09;9.90;;;7.57;;
438;SDS011;206;48.782;9.252;2023-07-24T11:43:01;11.10;;;7.43;;
438;SDS011;206;48.782;9.252;2023-07-24T11:45:27;9.77;;;7.27;;
438;SDS011;206;48.782;9.252;2023-07-24T11:47:53;9.03;;;6.80;;
438;SDS011;206;48.782;9.252;2023-07-24T11:50:19;9.50;;;7.30;;
438;SDS011;206;48.782;9.252;2023-07-24T11:52:52;12.03;;;7.33;;
438;SDS011;206;48.782;9.252;2023-07-24T11:55:19;11.33;;;7.93;;
438;SDS011;206;48.782;9.252;2023-07-24T11:57:55;11.13;;;7.10;;
438;SDS011;206;48.782;9.252;2023-07-24T12:00:22;9.60;;;7.27;;
438;SDS011;206;48.782;9.252;2023-07-24T12:02:47;7.67;;;7.30;;
438;SDS011;206;48.782;9.252;2023-07-24T12:05:13;7.90;;;6.77;;
438;SDS011;206;48.782;9.252;2023-07-24T12:07:39;9.90;;;7.90;;
438;SDS011;206;48.782;9.252;2023-07-24T12:10:12;9.53;;;7.57;;
438;SDS011;206;48.782;9.252;2023-07-24T12:12:39;8.47;;;7.20;;
438;SDS011;206;48.782;9.252;2023-07-24T12:15:08;7.47;;;6.73;;
438;SDS011;206;48.782;9.252;2023-07-24T12:17:35;8.80;;;6.60;;
438;SDS011;206;48.782;9.252;2023-07-24T12:20:01;15.33;;;6.70;;
438;SDS011;206;48.782;9.252;2023-07-24T12:22:27;8.73;;;6.77;;
438;SDS011;206;48.782;9.252;2023-07-24T12:24:53;8.27;;;7.40;;
438;SDS011;206;48.782;9.252;2023-07-24T12:27:18;7.37;;;7.03;;
438;SDS011;206;48.782;9.252;2023-07-24T12:29:44;8.77;;;8.27;;
438;SDS011;206;48.782;9.252;2023-07-24T12:32:10;12.10;;;7.63;;
438;SDS011;206;48.782;9.252;2023-07-24T12:34:35;10.67;;;7.63;;
438;SDS011;206;48.782;9.252;2023-07-24T12:37:01;10.27;;;7.00;;
438;SDS011;206;48.782;9.252;2023-07-24T12:39:26;7.50;;;6.87;;
438;SDS011;206;48.782;9.252;2023-07-24T12:41:52;12.53;;;7.20;;
438;SDS011;206;48.782;9.252;2023-07-24T12:44:17;11.03;;;7.10;;
438;SDS011;206;48.782;9.252;2023-07-24T12:46:43;9.67;;;7.63;;
438;SDS011;206;48.782;9.252;2023-07-24T12:49:09;9.07;;;7.50;;
438;SDS011;206;48.782;9.252;2023-07-24T12:51:35;9.07;;;6.13;;
438;SDS011;206;48.782;9.252;2023-07-24T12:54:00;10.10;;;6.60;;
438;SDS011;206;48.782;9.252;2023-07-24T12:56:26;7.47;;;6.13;;
438;SDS011;206;48.782;9.252;2023-07-24T12:58:51;7.80;;;7.03;;
438;SDS011;206;48.782;9.252;2023-07-24T13:01:17;7.47;;;6.40;;
438;SDS011;206;48.782;9.252;2023-07-24T13:03:43;7.33;;;5.90;;
438;SDS011;206;48.782;9.252;2023-07-24T13:06:08;8.70;;;6.97;;
438;SDS011;206;48.782;9.252;2023-07-24T13:08:34;7.57;;;6.30;;
438;SDS011;206;48.782;9.252;2023-07-24T13:10:59;7.67;;;6.43;;
438;SDS011;206;48.782;9.252;2023-07-24T13:13:25;7.90;;;6.50;;
438;SDS011;206;48.782;9.252;2023-07-24T13:15:50;8.60;;;6.20;;
438;SDS011;206;48.782;9.252;2023-07-24T13:18:16;7.23;;;6.30;;
438;SDS011;206;48.782;9.252;2023-07-24T13:20:44;7.80;;;6.30;;
438;SDS011;206;48.782;9.252;2023-07-24T13:23:10;8.33;;;6.40;;
438;SDS011;206;48.782;9.252;2023-07-24T13:25:36;6.93;;;6.57;;
438;SDS011;206;48.782;9.252;2023-07-24T13:28:01;7.87;;;5.50;;
438;SDS011;206;48.782;9.252;2023-07-24T13:30:27;9.90;;;7.00;;
438;SDS011;206;48.782;9.252;2023-07-24T13:32:53;9.73;;;6.80;;
438;SDS011;206;48.782;9.252;2023-07-24T13:35:18;6.90;;;5.77;;
438;SDS011;206;48.782;9.252;2023-07-24T13:37:44;7.33;;;5.70;;
438;SDS011;206;48.782;9.252;2023-07-24T13:40:09;6.53;;;5.80;;
438;SDS011;206;48.782;9.252;2023-07-24T13:42:35;6.57;;;6.23;;
438;SDS011;206;48.782;9.252;2023-07-24T13:45:01;7.90;;;6.63;;
438;SDS011;206;48.782;9.252;2023-07-24T13:47:26;6.20;;;5.60;;
438;SDS011;206;48.782;9.252;2023-07-24T13:49:52;6.10;;;5.80;;
438;SDS011;206;48.782;9.252;2023-07-24T13:52:18;7.17;;;5.53;;
438;SDS011;206;48.782;9.252;2023-07-24T13:54:43;5.20;;;4.60;;
438;SDS011;206;48.782;9.252;2023-07-24T13:57:09;6.13;;;4.97;;
438;SDS011;206;48.782;9.252;2023-07-24T13:59:35;5.73;;;5.27;;
438;SDS011;206;48.782;9.252;2023-07-24T14:02:03;4.17;;;3.50;;
438;SDS011;206;48.782;9.252;2023-07-24T14:04:29;6.90;;;5.97;;
438;SDS011;206;48.782;9.252;2023-07-24T14:06:54;6.93;;;4.87;;
438;SDS011;206;48.782;9.252;2023-07-24T14:09:20;7.37;;;5.20;;
438;SDS011;206;48.782;9.252;2023-07-24T14:11:45;6.73;;;4.83;;
438;SDS011;206;48.782;9.252;2023-07-24T14:14:11;5.40;;;4.90;;
438;SDS011;206;48.782;9.252;2023-07-24T14:16:36;6.37;;;5.27;;
438;SDS011;206;48.782;9.252;2023-07-24T14:19:02;5.43;;;4.90;;
438;SDS011;206;48.782;9.252;2023-07-24T14:21:28;7.10;;;4.80;;
438;SDS011;206;48.782;9.252;2023-07-24T14:23:53;6.30;;;5.47;;
438;SDS011;206;48.782;9.252;2023-07-24T14:26:19;4.97;;;4.67;;
438;SDS011;206;48.782;9.252;2023-07-24T14:28:44;5.87;;;4.50;;
438;SDS011;206;48.782;9.252;2023-07-24T14:31:10;4.47;;;4.23;;
438;SDS011;206;48.782;9.252;2023-07-24T14:33:36;4.10;;;3.67;;
438;SDS011;206;48.782;9.252;2023-07-24T14:36:01;5.07;;;4.30;;
438;SDS011;206;48.782;9.252;2023-07-24T14:38:27;4.83;;;3.77;;
438;SDS011;206;48.782;9.252;2023-07-24T14:40:53;4.40;;;3.97;;
438;SDS011;206;48.782;9.252;2023-07-24T14:43:18;5.43;;;4.80;;
438;SDS011;206;48.782;9.252;2023-07-24T14:45:45;5.93;;;4.57;;
438;SDS011;206;48.782;9.252;2023-07-24T14:48:11;6.27;;;4.63;;
438;SDS011;206;48.782;9.252;2023-07-24T14:50:39;5.33;;;4.83;;
438;SDS011;206;48.782;9.252;2023-07-24T14:53:05;5.60;;;4.60;;
438;SDS011;206;48.782;9.252;2023-07-24T14:55:30;5.80;;;4.57;;
438;SDS011;206;48.782;9.252;2023-07-24T14:57:56;7.33;;;4.30;;
438;SDS011;206;48.782;9.252;2023-07-24T15:00:22;5.63;;;4.27;;
438;SDS011;206;48.782;9.252;2023-07-24T15:02:47;4.80;;;4.10;;
438;SDS011;206;48.782;9.252;2023-07-24T15:05:13;4.63;;;3.70;;
438;SDS011;206;48.782;9.252;2023-07-24T15:07:38;5.40;;;4.20;;
438;SDS011;206;48.782;9.252;2023-07-24T15:10:04;6.07;;;4.77;;
438;SDS011;206;48.782;9.252;2023-07-24T15:12:30;4.87;;;4.00;;
438;SDS011;206;48.782;9.252;2023-07-24T15:14:56;5.00;;;4.20;;
438;SDS011;206;48.782;9.252;2023-07-24T15:17:22;4.43;;;4.20;;
438;SDS011;206;48.782;9.252;2023-07-24T15:19:47;4.63;;;3.90;;
438;SDS011;206;48.782;9.252;2023-07-24T15:22:13;4.97;;;4.13;;
438;SDS011;206;48.782;9.252;2023-07-24T15:24:39;5.07;;;3.97;;
438;SDS011;206;48.782;9.252;2023-07-24T15:27:06;4.63;;;4.03;;
438;SDS011;206;48.782;9.252;2023-07-24T15:29:36;5.00;;;4.20;;
438;SDS011;206;48.782;9.252;2023-07-24T15:32:02;7.47;;;4.37;;
438;SDS011;206;48.782;9.252;2023-07-24T15:34:30;3.70;;;3.50;;
438;SDS011;206;48.782;9.252;2023-07-24T15:36:55;4.13;;;3.87;;
438;SDS011;206;48.782;9.252;2023-07-24T15:39:21;4.67;;;4.40;;
438;SDS011;206;48.782;9.252;2023-07-24T15:41:47;8.00;;;4.83;;
438;SDS011;206;48.782;9.252;2023-07-24T15:44:12;5.00;;;3.70;;
438;SDS011;206;48.782;9.252;2023-07-24T15:46:38;4.30;;;3.90;;
438;SDS011;206;48.782;9.252;2023-07-24T15:49:04;4.90;;;3.97;;